createdAt,value
2022-08-26T00:00:22.880Z,101511.94
2022-08-26T00:03:29.322Z,101521.91
2022-08-26T00:06:34.115Z,101513.78
2022-08-26T00:09:40.060Z,101520.06
2022-08-26T00:12:45.424Z,101522.38
2022-08-26T00:15:51.298Z,101525.16
2022-08-26T00:18:56.638Z,101520.78
2022-08-26T00:22:01.173Z,101528.91
2022-08-26T00:25:07.023Z,101524.44
2022-08-26T00:28:14.996Z,101531.81
2022-08-26T00:31:23.266Z,101531.81
2022-08-26T00:34:28.398Z,101542.75
2022-08-26T00:37:33.292Z,101536.44
2022-08-26T00:40:48.691Z,101535.00
2022-08-26T00:43:53.126Z,101528.81
2022-08-26T00:47:02.599Z,101526.50
2022-08-26T00:50:14.836Z,101520.94
2022-08-26T00:53:25.961Z,101526.50
2022-08-26T00:56:47.078Z,101518.63
2022-08-26T00:59:58.663Z,101522.41
2022-08-26T01:03:05.244Z,101518.03
2022-08-26T01:06:13.646Z,101515.34
2022-08-26T01:09:19.306Z,101525.06
2022-08-26T01:12:32.113Z,101522.28
2022-08-26T01:15:48.382Z,101518.50
2022-08-26T01:19:03.843Z,101513.91
2022-08-26T01:22:26.692Z,101513.91
2022-08-26T01:25:39.104Z,101525.53
2022-08-26T01:28:44.476Z,101523.72
2022-08-26T01:31:57.322Z,101526.50
2022-08-26T01:35:02.122Z,101523.59
2022-08-26T01:38:06.559Z,101513.16
2022-08-26T01:41:19.756Z,101520.94
2022-08-26T01:44:30.729Z,101519.50
2022-08-26T01:47:38.736Z,101526.63
2022-08-26T01:50:45.079Z,101526.63
2022-08-26T01:53:50.162Z,101522.03
2022-08-26T01:56:55.219Z,101523.00
2022-08-26T02:00:04.293Z,101521.56
2022-08-26T02:03:18.605Z,101523.94
2022-08-26T02:06:23.725Z,101520.09
2022-08-26T02:09:29.747Z,101524.56
2022-08-26T02:12:35.516Z,101523.59
2022-08-26T02:15:44.453Z,101517.53
2022-08-26T02:18:53.273Z,101512.31
2022-08-26T02:22:03.561Z,101510.50
2022-08-26T02:25:25.070Z,101515.34
2022-08-26T02:28:39.190Z,101511.25
2022-08-26T02:31:44.132Z,101513.16
2022-08-26T02:34:48.553Z,101512.91
2022-08-26T02:37:53.556Z,101507.59
2022-08-26T02:40:58.149Z,101512.69
2022-08-26T02:44:02.847Z,101506.50
2022-08-26T02:47:08.119Z,101507.47
2022-08-26T02:50:12.611Z,101503.97
2022-08-26T02:53:19.216Z,101511.00
2022-08-26T02:56:29.451Z,101510.25
2022-08-26T02:59:36.038Z,101505.28
2022-08-26T03:02:40.788Z,101505.91
2022-08-26T03:05:45.456Z,101501.31
2022-08-26T03:08:50.122Z,101495.25
2022-08-26T03:11:55.525Z,101502.88
2022-08-26T03:15:01.481Z,101501.06
2022-08-26T03:18:06.693Z,101495.00
2022-08-26T03:21:16.033Z,101489.91
2022-08-26T03:24:23.208Z,101487.47
2022-08-26T03:27:29.577Z,101485.03
2022-08-26T03:30:45.499Z,101490.13
2022-08-26T03:33:50.241Z,101483.09
2022-08-26T03:36:56.564Z,101486.50
2022-08-26T03:40:01.216Z,101482.84
2022-08-26T03:43:07.359Z,101478.38
2022-08-26T03:46:14.698Z,101473.41
2022-08-26T03:49:19.075Z,101469.53
2022-08-26T03:52:23.462Z,101468.09
2022-08-26T03:55:32.031Z,101470.13
2022-08-26T03:58:37.440Z,101466.50
2022-08-26T04:01:42.625Z,101464.66
2022-08-26T04:04:47.276Z,101462.25
2022-08-26T04:07:52.567Z,101462.50
2022-08-26T04:10:57.453Z,101452.69
2022-08-26T04:14:09.151Z,101459.97
2022-08-26T04:17:15.665Z,101456.91
2022-08-26T04:20:21.288Z,101462.63
2022-08-26T04:23:25.586Z,101460.06
2022-08-26T04:26:37.113Z,101457.66
2022-08-26T04:29:43.936Z,101457.41
2022-08-26T04:32:49.282Z,101453.28
2022-08-26T04:36:02.675Z,101454.38
2022-08-26T04:39:12.077Z,101454.97
2022-08-26T04:42:21.021Z,101449.66
2022-08-26T04:45:30.747Z,101458.59
2022-08-26T04:48:35.647Z,101458.38
2022-08-26T04:51:40.778Z,101458.59
2022-08-26T04:54:45.352Z,101462.38
2022-08-26T04:58:02.655Z,101459.19
2022-08-26T05:01:08.737Z,101455.34
2022-08-26T05:04:13.325Z,101460.66
2022-08-26T05:07:20.816Z,101463.47
2022-08-26T05:10:25.153Z,101463.34
2022-08-26T05:13:31.569Z,101461.97
2022-08-26T05:16:40.484Z,101465.41
2022-08-26T05:19:46.337Z,101459.31
2022-08-26T05:22:50.944Z,101467.06
2022-08-26T05:25:59.364Z,101462.38
2022-08-26T05:29:06.588Z,101464.19
2022-08-26T05:32:11.376Z,101465.41
2022-08-26T05:35:17.666Z,101467.56
2022-08-26T05:38:22.776Z,101475.19
2022-08-26T05:41:36.579Z,101474.13
2022-08-26T05:44:54.081Z,101465.41
2022-08-26T05:48:00.259Z,101471.94
2022-08-26T05:51:08.638Z,101473.41
2022-08-26T05:54:15.022Z,101472.53
2022-08-26T05:57:27.820Z,101481.88
2022-08-26T06:00:33.049Z,101495.09
2022-08-26T06:03:40.019Z,101486.50
2022-08-26T06:06:45.180Z,101489.69
2022-08-26T06:09:49.614Z,101491.34
2022-08-26T06:12:54.610Z,101500.47
2022-08-26T06:16:03.214Z,101486.78
2022-08-26T06:19:12.801Z,101483.97
2022-08-26T06:22:37.838Z,101479.84
2022-08-26T06:25:43.002Z,101485.28
2022-08-26T06:28:48.233Z,101470.25
2022-08-26T06:31:56.141Z,101464.63
2022-08-26T06:35:01.107Z,101469.47
2022-08-26T06:38:06.586Z,101468.84
2022-08-26T06:41:11.527Z,101482.53
2022-08-26T06:44:16.371Z,101497.19
2022-08-26T06:47:20.932Z,101508.34
2022-08-26T06:50:25.297Z,101520.63
2022-08-26T06:53:30.230Z,101513.91
2022-08-26T06:56:44.147Z,101507.72
2022-08-26T06:59:51.191Z,101506.25
2022-08-26T07:02:55.980Z,101509.16
2022-08-26T07:06:04.454Z,101510.31
2022-08-26T07:09:10.780Z,101513.69
2022-08-26T07:12:15.090Z,101518.13
2022-08-26T07:15:20.079Z,101509.41
2022-08-26T07:18:34.493Z,101513.53
2022-08-26T07:21:41.608Z,101513.53
2022-08-26T07:24:46.390Z,101499.72
2022-08-26T07:27:54.075Z,101502.59
2022-08-26T07:31:14.180Z,101498.13
2022-08-26T07:34:20.326Z,101499.81
2022-08-26T07:37:24.670Z,101498.47
2022-08-26T07:40:29.246Z,101496.97
2022-08-26T07:43:35.299Z,101498.41
2022-08-26T07:46:43.991Z,101497.41
2022-08-26T07:49:52.664Z,101493.16
2022-08-26T07:52:57.831Z,101500.91
2022-08-26T07:56:02.536Z,101496.41
2022-08-26T07:59:13.850Z,101501.22
2022-08-26T08:02:19.357Z,101498.31
2022-08-26T08:05:23.874Z,101500.97
2022-08-26T08:08:40.695Z,101494.44
2022-08-26T08:11:45.592Z,101493.47
2022-08-26T08:14:52.997Z,101493.34
2022-08-26T08:18:00.615Z,101491.63
2022-08-26T08:21:21.216Z,101482.03
2022-08-26T08:24:26.910Z,101488.84
2022-08-26T08:27:35.457Z,101490.53
2022-08-26T08:30:41.101Z,101489.22
2022-08-26T08:33:45.824Z,101489.09
2022-08-26T08:36:50.513Z,101486.28
2022-08-26T08:39:58.260Z,101491.50
2022-08-26T08:43:13.541Z,101499.25
2022-08-26T08:46:19.469Z,101496.47
2022-08-26T08:49:25.861Z,101497.44
2022-08-26T08:52:35.456Z,101495.34
2022-08-26T08:56:26.663Z,101504.22
2022-08-26T08:59:38.517Z,101515.63
2022-08-26T09:02:59.822Z,101517.06
2022-08-26T09:06:16.944Z,101524.47
2022-08-26T09:09:34.913Z,101517.59
2022-08-26T09:12:39.601Z,101517.38
2022-08-26T09:16:15.250Z,101514.41
2022-08-26T09:19:48.018Z,101514.84
2022-08-26T09:22:53.668Z,101521.97
2022-08-26T09:26:03.580Z,101522.47
2022-08-26T09:29:25.177Z,101532.66
2022-08-26T09:32:30.566Z,101530.97
2022-08-26T09:35:48.672Z,101534.09
2022-08-26T09:38:55.114Z,101528.75
2022-08-26T09:42:22.554Z,101528.16
2022-08-26T09:45:30.047Z,101525.69
2022-08-26T09:48:40.699Z,101530.22
2022-08-26T09:51:45.685Z,101526.31
2022-08-26T09:55:10.097Z,101520.31
2022-08-26T09:58:38.637Z,101515.94
2022-08-26T10:01:46.297Z,101513.97
2022-08-26T10:04:56.619Z,101512.69
2022-08-26T10:08:14.695Z,101512.63
2022-08-26T10:11:21.870Z,101512.75
2022-08-26T10:14:48.059Z,101519.47
2022-08-26T10:18:03.656Z,101519.81
2022-08-26T10:21:18.031Z,101515.97
2022-08-26T10:24:37.819Z,101519.22
2022-08-26T10:27:54.105Z,101514.72
2022-08-26T10:31:27.932Z,101516.97
2022-08-26T10:34:34.088Z,101520.41
2022-08-26T10:37:49.967Z,101515.03
2022-08-26T10:41:10.775Z,101505.75
2022-08-26T10:44:18.537Z,101506.94
2022-08-26T10:47:33.299Z,101503.00
2022-08-26T10:50:41.963Z,101500.84
2022-08-26T10:54:02.265Z,101508.84
2022-08-26T10:57:24.661Z,101503.38
2022-08-26T11:00:55.868Z,101506.91
2022-08-26T11:04:35.147Z,101488.31
2022-08-26T11:07:44.303Z,101449.09
2022-08-26T11:10:52.238Z,101388.25
2022-08-26T11:13:56.890Z,101375.22
2022-08-26T11:17:04.188Z,101361.56
2022-08-26T11:20:33.166Z,101343.66
2022-08-26T11:23:50.495Z,101348.34
2022-08-26T11:26:56.702Z,101354.19
2022-08-26T11:30:13.636Z,101315.75
2022-08-26T11:33:59.448Z,101307.09
2022-08-26T11:37:15.665Z,101270.59
2022-08-26T11:40:30.488Z,101325.13
2022-08-26T11:43:36.137Z,101344.84
2022-08-26T11:46:41.475Z,101358.19
2022-08-26T11:49:45.431Z,101337.31
2022-08-26T11:53:02.018Z,101302.34
2022-08-26T11:56:33.219Z,101240.03
2022-08-26T11:59:42.309Z,101236.91
2022-08-26T12:02:52.356Z,101250.59
2022-08-26T12:05:57.396Z,101249.50
2022-08-26T12:09:08.665Z,101250.13
2022-08-26T12:12:35.192Z,101239.22
2022-08-26T12:15:41.913Z,101209.22
2022-08-26T12:18:46.285Z,101164.25
2022-08-26T12:21:50.769Z,101218.69
2022-08-26T12:25:00.024Z,101264.13
2022-08-26T12:28:06.171Z,101278.97
2022-08-26T12:31:10.740Z,101261.78
2022-08-26T12:34:18.119Z,101250.31
2022-08-26T12:37:27.155Z,101267.91
2022-08-26T12:40:44.850Z,101218.50
2022-08-26T12:43:58.921Z,101218.00
2022-08-26T12:47:43.528Z,101216.28
2022-08-26T12:50:51.492Z,101182.75
2022-08-26T12:53:57.377Z,101179.72
2022-08-26T12:57:11.863Z,101223.47
2022-08-26T13:00:38.037Z,101231.78
2022-08-26T13:03:46.597Z,101246.00
2022-08-26T13:07:22.205Z,101249.53
2022-08-26T13:10:38.742Z,101234.44
2022-08-26T13:13:43.554Z,101213.78
2022-08-26T13:16:49.420Z,101222.47
2022-08-26T13:19:53.722Z,101230.22
2022-08-26T13:22:59.492Z,101222.41
2022-08-26T13:26:04.237Z,101248.91
2022-08-26T13:29:10.597Z,101232.59
2022-08-26T13:32:15.760Z,101198.25
2022-08-26T13:35:20.762Z,101186.47
2022-08-26T13:38:33.863Z,101167.44
2022-08-26T13:41:39.229Z,101194.00
2022-08-26T13:44:45.362Z,101190.66
2022-08-26T13:47:49.766Z,101138.25
2022-08-26T13:50:54.157Z,101153.56
2022-08-26T13:53:58.607Z,101188.50
2022-08-26T13:57:04.547Z,101179.88
2022-08-26T14:00:11.188Z,101175.00
2022-08-26T14:03:15.878Z,101161.03
2022-08-26T14:06:20.820Z,101143.06
2022-08-26T14:09:25.601Z,101148.78
2022-08-26T14:12:29.948Z,101097.72
2022-08-26T14:15:37.686Z,101130.19
2022-08-26T14:18:45.274Z,101102.47
2022-08-26T14:21:53.286Z,101115.91
2022-08-26T14:24:57.630Z,101131.00
2022-08-26T14:28:02.370Z,101146.41
2022-08-26T14:31:07.587Z,101166.25
2022-08-26T14:34:13.875Z,101169.59
2022-08-26T14:37:19.215Z,101169.56
2022-08-26T14:40:28.599Z,101171.72
2022-08-26T14:43:33.958Z,101155.59
2022-08-26T14:46:49.622Z,101155.25
2022-08-26T14:49:54.289Z,101164.66
2022-08-26T14:53:17.160Z,101138.94
2022-08-26T14:56:21.708Z,101165.19
2022-08-26T14:59:30.170Z,101199.84
2022-08-26T15:02:34.723Z,101188.84
2022-08-26T15:05:48.095Z,101203.81
2022-08-26T15:08:53.465Z,101212.72
2022-08-26T15:11:58.082Z,101219.13
2022-08-26T15:15:03.363Z,101203.50
2022-08-26T15:18:08.156Z,101209.06
2022-08-26T15:21:12.914Z,101220.81
2022-08-26T15:24:22.075Z,101212.75
2022-08-26T15:27:26.676Z,101201.97
2022-08-26T15:30:31.748Z,101223.81
2022-08-26T15:33:38.211Z,101228.69
2022-08-26T15:36:44.792Z,101240.09
2022-08-26T15:39:49.876Z,101257.69
2022-08-26T15:43:11.433Z,101263.19
2022-08-26T15:46:20.383Z,101246.47
2022-08-26T15:49:25.022Z,101231.44
2022-08-26T15:52:29.370Z,101211.38
2022-08-26T15:55:33.805Z,101209.41
2022-08-26T15:58:39.225Z,101238.78
2022-08-26T16:01:46.541Z,101248.16
2022-08-26T16:04:51.522Z,101279.38
2022-08-26T16:07:56.323Z,101293.41
2022-08-26T16:11:09.752Z,101301.69
2022-08-26T16:14:15.046Z,101339.81
2022-08-26T16:17:20.353Z,101354.81
2022-08-26T16:20:26.136Z,101377.94
2022-08-26T16:23:30.988Z,101388.69
2022-08-26T16:26:38.089Z,101394.63
2022-08-26T16:29:42.500Z,101390.38
2022-08-26T16:32:47.323Z,101382.22
2022-08-26T16:35:52.420Z,101386.94
2022-08-26T16:38:57.215Z,101381.03
2022-08-26T16:42:01.512Z,101374.38
2022-08-26T16:45:07.307Z,101373.84
2022-08-26T16:48:13.062Z,101379.19
2022-08-26T16:51:23.042Z,101387.81
2022-08-26T16:54:27.295Z,101393.03
2022-08-26T16:57:31.670Z,101393.88
2022-08-26T17:00:36.129Z,101391.06
2022-08-26T17:03:41.194Z,101392.22
2022-08-26T17:06:46.495Z,101383.03
2022-08-26T17:09:50.795Z,101373.19
2022-08-26T17:12:55.541Z,101371.09
2022-08-26T17:16:00.970Z,101369.38
2022-08-26T17:19:08.943Z,101366.25
2022-08-26T17:22:14.241Z,101362.31
2022-08-26T17:25:28.456Z,101355.56
2022-08-26T17:28:33.607Z,101344.69
2022-08-26T17:31:39.210Z,101333.31
2022-08-26T17:34:47.690Z,101334.69
2022-08-26T17:37:52.763Z,101324.25
2022-08-26T17:40:58.160Z,101323.69
2022-08-26T17:44:02.746Z,101321.16
2022-08-26T17:47:07.228Z,101324.81
2022-08-26T17:50:18.360Z,101316.66
2022-08-26T17:53:24.366Z,101303.69
2022-08-26T17:56:29.653Z,101305.19
2022-08-26T17:59:34.254Z,101313.34
2022-08-26T18:02:39.791Z,101319.69
2022-08-26T18:05:50.949Z,101325.03
2022-08-26T18:08:55.475Z,101321.50
2022-08-26T18:12:00.423Z,101315.00
2022-08-26T18:15:06.162Z,101326.91
2022-08-26T18:18:11.910Z,101323.81
2022-08-26T18:21:21.593Z,101321.69
2022-08-26T18:24:28.643Z,101347.28
2022-08-26T18:27:35.620Z,101350.19
2022-08-26T18:30:43.289Z,101368.19
2022-08-26T18:33:48.972Z,101354.66
2022-08-26T18:36:53.425Z,101358.03
2022-08-26T18:39:59.508Z,101351.53
2022-08-26T18:43:04.640Z,101355.16
2022-08-26T18:46:10.713Z,101361.28
2022-08-26T18:49:18.336Z,101346.06
2022-08-26T18:52:22.658Z,101357.00
2022-08-26T18:55:28.634Z,101364.28
2022-08-26T18:58:33.260Z,101360.91
2022-08-26T19:01:40.524Z,101370.44
2022-08-26T19:04:45.044Z,101384.72
2022-08-26T19:07:49.378Z,101399.91
2022-08-26T19:10:54.974Z,101400.25
2022-08-26T19:14:02.078Z,101391.41
2022-08-26T19:17:06.997Z,101397.25
2022-08-26T19:20:11.819Z,101402.19
2022-08-26T19:23:33.663Z,101404.75
2022-08-26T19:26:39.119Z,101396.59
2022-08-26T19:29:43.710Z,101375.44
2022-08-26T19:32:48.136Z,101372.66
2022-08-26T19:35:53.135Z,101375.44
2022-08-26T19:38:58.509Z,101381.94
2022-08-26T19:42:03.319Z,101377.00
2022-08-26T19:45:24.653Z,101377.81
2022-08-26T19:48:30.099Z,101390.84
2022-08-26T19:51:36.398Z,101398.16
2022-08-26T19:54:40.911Z,101397.69
2022-08-26T19:57:45.685Z,101398.78
2022-08-26T20:00:50.467Z,101400.25
2022-08-26T20:07:11.398Z,101411.44
2022-08-26T20:10:21.816Z,101412.38
2022-08-26T20:13:26.417Z,101412.56
2022-08-26T20:16:30.741Z,101410.22
2022-08-26T20:19:55.307Z,101406.81
2022-08-26T20:23:00.724Z,101397.50
2022-08-26T20:26:05.347Z,101397.91
2022-08-26T20:29:13.500Z,101405.19
2022-08-26T20:32:18.438Z,101413.44
2022-08-26T20:35:24.064Z,101417.06
2022-08-26T20:38:28.530Z,101416.50
2022-08-26T20:41:32.919Z,101407.91
2022-08-26T20:44:37.772Z,101402.56
2022-08-26T20:47:47.859Z,101400.13
2022-08-26T20:50:59.331Z,101404.31
2022-08-26T20:54:06.429Z,101409.63
2022-08-26T20:57:10.846Z,101410.84
2022-08-26T21:00:18.213Z,101413.97
2022-08-26T21:03:24.787Z,101414.22
2022-08-26T21:06:29.830Z,101415.69
2022-08-26T21:09:34.368Z,101423.69
2022-08-26T21:12:38.877Z,101421.97
2022-08-26T21:15:43.641Z,101419.78
2022-08-26T21:18:50.010Z,101423.56
2022-08-26T21:21:54.588Z,101425.34
2022-08-26T21:24:59.019Z,101427.91
2022-08-26T21:28:06.442Z,101429.72
2022-08-26T21:31:15.834Z,101417.84
2022-08-26T21:34:20.569Z,101423.19
2022-08-26T21:37:28.079Z,101416.41
2022-08-26T21:40:32.722Z,101414.19
2022-08-26T21:43:37.789Z,101412.75
2022-08-26T21:46:44.900Z,101411.91
2022-08-26T21:49:53.441Z,101414.69
2022-08-26T21:52:58.123Z,101411.06
2022-08-26T21:56:08.529Z,101410.47
2022-08-26T21:59:16.465Z,101411.31
2022-08-26T22:02:22.257Z,101414.97
2022-08-26T22:05:28.497Z,101416.53
2022-08-26T22:08:32.942Z,101416.75
2022-08-26T22:11:37.477Z,101419.69
2022-08-26T22:14:41.932Z,101427.09
2022-08-26T22:17:46.584Z,101421.63
2022-08-26T22:20:52.820Z,101418.38
2022-08-26T22:23:58.653Z,101419.34
2022-08-26T22:27:03.461Z,101419.81
2022-08-26T22:30:08.738Z,101423.97
2022-08-26T22:33:17.696Z,101424.19
2022-08-26T22:36:27.173Z,101410.88
2022-08-26T22:39:31.457Z,101410.88
2022-08-26T22:42:35.852Z,101404.69
2022-08-26T22:45:46.347Z,101405.78
2022-08-26T22:48:53.966Z,101391.97
2022-08-26T22:51:58.404Z,101390.03
2022-08-26T22:55:04.538Z,101393.06
2022-08-26T22:58:09.958Z,101399.50
2022-08-26T23:01:16.956Z,101399.50
2022-08-26T23:04:21.966Z,101399.38
2022-08-26T23:07:26.377Z,101395.00
2022-08-26T23:10:31.140Z,101398.03
2022-08-26T23:13:36.547Z,101401.81
2022-08-26T23:16:41.875Z,101401.72
2022-08-26T23:19:46.800Z,101393.47
2022-08-26T23:22:51.345Z,101396.38
2022-08-26T23:25:56.128Z,101397.47
2022-08-26T23:29:01.071Z,101385.94
2022-08-26T23:32:05.910Z,101386.91
2022-08-26T23:35:12.052Z,101378.31
2022-08-26T23:38:18.824Z,101375.53
2022-08-26T23:41:24.545Z,101384.50
2022-08-26T23:44:31.201Z,101376.75
2022-08-26T23:47:36.423Z,101384.50
2022-08-26T23:50:59.497Z,101381.13
2022-08-26T23:54:04.110Z,101386.44
2022-08-26T23:57:09.564Z,101383.06
